Sevierville, TN

5:58 AM EDT on August 29, 2016 (GMT -0400)
Murphy Rd | | Change Station

Elev 958 ft 35.85 °N, 83.57 °W | Updated 10 seconds ago

Scattered Clouds
Scattered Clouds
65.9 °F
Feels Like 65.9 °F
N
0.0
Wind Variable Wind from South

Today
High -- | Low -- °F
--% Chance of Precip.
Yesterday
High -- | Low -- °F
Precip. -- in
Pressure 30.10 in
Visibility 10.0 miles
Clouds Scattered Clouds 25000 ft
Dew Point 62 °F
Humidity 90%
Rainfall 0.00 in
Snow Depth Not available.
7:04 AM 8:05 PM
Waning Crescent, 9% visible
METAR KTYS 290953Z 00000KT 10SM SCT250 21/19 A3013 RMK AO2 SLP192 T02110194
Pressure 30.10 in
Visibility 10.0 miles
Clouds Scattered Clouds 25000 ft
Dew Point 62 °F
Humidity 90%
Rainfall 0.00 in
Snow Depth Not available.
7:04 AM 8:05 PM
Waning Crescent, 9% visible
METAR KTYS 290953Z 00000KT 10SM SCT250 21/19 A3013 RMK AO2 SLP192 T02110194

10-Day Weather Forecast

Almanac

Astronomy

Aug. 29, 2016 Rise Set
Actual Time
Civil Twilight
Nautical Twilight
Astronomical Twilight
Moon
Length of Visible Light
Length of Day
Tomorrow will be .
, % of the Moon is Illuminated

Today's Extremes

State Highs State Lows

Community

WunderPhotos

Upload Photos

1,935,798 photos uploaded!

WunderBlog® & News

Nearby

Air Quality

  Air Quality AQ Index Pollutant
Not available.

Snow Depth

Station Depth Elevation

Earthquake Activity

City Distance Mag. Time & Date
Minimum magnitude displayed is 2.5.

Coastal Water Temperatures

Place Temperature

Stations

Nearby Weather Stations

Station Location Temp. Windchill Dew Point Humidity Wind Precip. Elev Updated Type
                   

Watches & Warnings

There are currently no watches in effect.